createdAt,value
2023-05-19T00:01:20.609Z,100131.34
2023-05-19T00:03:59.052Z,100119.56
2023-05-19T00:06:27.332Z,100130.41
2023-05-19T00:09:01.726Z,100123.47
2023-05-19T00:11:29.452Z,100122.41
2023-05-19T00:13:59.601Z,100120.59
2023-05-19T00:16:28.687Z,100121.66
2023-05-19T00:18:57.109Z,100116.63
2023-05-19T00:21:24.187Z,100117.00
2023-05-19T00:23:50.898Z,100113.41
2023-05-19T00:26:18.039Z,100112.34
2023-05-19T00:28:44.489Z,100107.28
2023-05-19T00:31:11.131Z,100115.56
2023-05-19T00:33:37.616Z,100106.81
2023-05-19T00:36:04.644Z,100106.16
2023-05-19T00:38:32.633Z,100110.06
2023-05-19T00:41:00.055Z,100115.47
2023-05-19T00:43:27.363Z,100115.56
2023-05-19T00:45:54.035Z,100108.16
2023-05-19T00:48:21.319Z,100108.03
2023-05-19T00:50:49.588Z,100109.75
2023-05-19T00:53:18.177Z,100100.78
2023-05-19T00:55:45.861Z,100101.75
2023-05-19T00:58:13.889Z,100104.50
2023-05-19T01:00:41.050Z,100106.78
2023-05-19T01:03:11.362Z,100105.59
2023-05-19T01:05:42.250Z,100110.25
2023-05-19T01:08:09.026Z,100115.84
2023-05-19T01:10:35.950Z,100118.84
2023-05-19T01:13:07.264Z,100103.94
2023-05-19T01:15:40.733Z,100103.50
2023-05-19T01:18:16.809Z,100109.88
2023-05-19T01:20:50.828Z,100106.44
2023-05-19T01:23:44.109Z,100111.00
2023-05-19T01:26:44.107Z,100106.03
2023-05-19T01:30:01.640Z,100110.69
2023-05-19T01:32:31.387Z,100112.31
2023-05-19T01:34:58.726Z,100100.78
2023-05-19T01:37:27.121Z,100101.38
2023-05-19T01:39:55.606Z,100102.19
2023-05-19T01:42:23.429Z,100103.03
2023-05-19T01:44:51.130Z,100108.53
2023-05-19T01:47:18.548Z,100101.28
2023-05-19T01:49:45.037Z,100098.72
2023-05-19T01:52:11.540Z,100107.34
2023-05-19T01:54:38.112Z,100111.31
2023-05-19T01:57:23.786Z,100107.13
2023-05-19T02:00:07.869Z,100095.91
2023-05-19T02:03:08.010Z,100094.44
2023-05-19T02:05:59.649Z,100097.19
2023-05-19T02:08:50.787Z,100100.81
2023-05-19T02:11:31.202Z,100111.34
2023-05-19T02:14:03.105Z,100109.53
2023-05-19T02:16:30.367Z,100102.91
2023-05-19T02:18:57.296Z,100100.09
2023-05-19T02:21:24.293Z,100103.75
2023-05-19T02:23:50.937Z,100109.28
2023-05-19T02:26:17.390Z,100102.25
2023-05-19T02:28:43.820Z,100105.94
2023-05-19T02:31:10.699Z,100109.63
2023-05-19T02:33:37.430Z,100103.28
2023-05-19T02:36:04.492Z,100113.72
2023-05-19T02:38:30.939Z,100097.97
2023-05-19T02:40:57.402Z,100104.22
2023-05-19T02:43:23.889Z,100103.97
2023-05-19T02:45:50.343Z,100104.72
2023-05-19T02:48:16.759Z,100102.91
2023-05-19T02:50:43.684Z,100106.88
2023-05-19T02:53:10.266Z,100103.63
2023-05-19T02:55:37.728Z,100097.81
2023-05-19T02:58:04.268Z,100103.03
2023-05-19T03:00:30.954Z,100093.34
2023-05-19T03:03:02.621Z,100105.38
2023-05-19T03:05:30.289Z,100101.91
2023-05-19T03:07:56.901Z,100106.28
2023-05-19T03:10:23.456Z,100104.56
2023-05-19T03:12:50.328Z,100098.47
2023-05-19T03:15:17.176Z,100110.41
2023-05-19T03:17:43.857Z,100103.75
2023-05-19T03:20:10.955Z,100097.22
2023-05-19T03:22:37.816Z,100096.97
2023-05-19T03:25:05.203Z,100101.53
2023-05-19T03:27:31.624Z,100093.53
2023-05-19T03:29:58.086Z,100094.69
2023-05-19T03:32:25.031Z,100092.19
2023-05-19T03:34:51.742Z,100094.91
2023-05-19T03:37:18.222Z,100089.59
2023-05-19T03:39:44.826Z,100097.50
2023-05-19T03:42:11.311Z,100096.53
2023-05-19T03:44:37.786Z,100100.91
2023-05-19T03:47:04.681Z,100097.50
2023-05-19T03:49:31.184Z,100106.41
2023-05-19T03:51:58.141Z,100109.13
2023-05-19T03:54:24.612Z,100107.59
2023-05-19T03:56:51.897Z,100114.66
2023-05-19T03:59:18.349Z,100112.84
2023-05-19T04:01:45.330Z,100114.44
2023-05-19T04:04:12.070Z,100109.81
2023-05-19T04:06:38.691Z,100111.22
2023-05-19T04:09:13.037Z,100106.69
2023-05-19T04:11:40.924Z,100109.94
2023-05-19T04:14:07.961Z,100107.94
2023-05-19T04:16:34.952Z,100112.22
2023-05-19T04:19:02.021Z,100110.16
2023-05-19T04:21:28.490Z,100111.56
2023-05-19T04:23:55.400Z,100102.19
2023-05-19T04:26:22.576Z,100110.41
2023-05-19T04:28:49.068Z,100105.75
2023-05-19T04:31:15.641Z,100105.59
2023-05-19T04:33:46.077Z,100113.38
2023-05-19T04:36:14.099Z,100103.88
2023-05-19T04:38:40.670Z,100097.94
2023-05-19T04:41:10.803Z,100099.31
2023-05-19T04:43:41.951Z,100096.03
2023-05-19T04:46:13.437Z,100068.75
2023-05-19T04:48:41.016Z,100049.59
2023-05-19T04:51:07.867Z,100028.84
2023-05-19T04:53:34.493Z,100024.44
2023-05-19T04:56:02.368Z,100029.50
2023-05-19T04:58:28.792Z,100019.72
2023-05-19T05:00:58.561Z,100016.19
2023-05-19T05:03:26.183Z,100016.13
2023-05-19T05:05:52.892Z,100015.28
2023-05-19T05:08:23.189Z,100015.09
2023-05-19T05:10:53.259Z,100011.91
2023-05-19T05:13:24.416Z,100019.19
2023-05-19T05:15:52.456Z,100012.50
2023-05-19T05:18:19.227Z,100020.94
2023-05-19T05:20:47.025Z,100015.69
2023-05-19T05:23:16.922Z,100017.06
2023-05-19T05:25:44.607Z,100022.19
2023-05-19T05:28:11.368Z,100020.22
2023-05-19T05:30:38.213Z,100021.94
2023-05-19T05:33:05.137Z,100017.22
2023-05-19T05:35:32.185Z,100023.44
2023-05-19T05:37:58.993Z,100022.38
2023-05-19T05:40:25.573Z,100026.06
2023-05-19T05:42:52.341Z,100022.25
2023-05-19T05:45:18.762Z,100021.31
2023-05-19T05:47:45.470Z,100022.31
2023-05-19T05:50:13.323Z,100022.03
2023-05-19T05:52:41.280Z,100018.03
2023-05-19T05:55:08.491Z,100021.53
2023-05-19T05:57:36.431Z,100026.59
2023-05-19T06:00:07.121Z,100020.72
2023-05-19T06:02:33.804Z,100023.16
2023-05-19T06:05:00.721Z,100023.84
2023-05-19T06:07:27.465Z,100031.09
2023-05-19T06:09:53.900Z,100020.38
2023-05-19T06:12:20.555Z,100016.22
2023-05-19T06:14:47.071Z,100024.16
2023-05-19T06:17:13.730Z,100015.69
2023-05-19T06:19:40.174Z,100021.53
2023-05-19T06:22:06.667Z,100021.38
2023-05-19T06:24:33.173Z,100011.59
2023-05-19T06:27:00.128Z,100019.53
2023-05-19T06:29:26.660Z,100016.25
2023-05-19T06:31:53.564Z,100018.09
2023-05-19T06:34:21.027Z,100011.97
2023-05-19T06:36:47.865Z,100018.06
2023-05-19T06:39:14.328Z,100015.78
2023-05-19T06:41:40.793Z,100017.63
2023-05-19T06:44:09.039Z,100015.53
2023-05-19T06:46:35.612Z,100016.63
2023-05-19T06:49:02.514Z,100011.00
2023-05-19T06:51:29.195Z,100011.31
2023-05-19T06:53:55.968Z,100015.25
2023-05-19T06:56:22.973Z,100012.16
2023-05-19T06:58:49.748Z,100015.13
2023-05-19T07:01:16.179Z,100019.94
2023-05-19T07:03:43.486Z,100012.94
2023-05-19T07:06:10.091Z,100014.19
2023-05-19T07:08:37.236Z,100011.50
2023-05-19T07:11:03.955Z,100015.47
2023-05-19T07:13:30.603Z,100009.47
2023-05-19T07:15:57.919Z,100008.63
2023-05-19T07:18:25.359Z,100010.50
2023-05-19T07:20:53.929Z,100011.09
2023-05-19T07:23:20.516Z,99996.63
2023-05-19T07:25:47.091Z,100002.22
2023-05-19T07:28:13.589Z,100006.50
2023-05-19T07:30:40.206Z,100002.56
2023-05-19T07:33:07.111Z,100006.84
2023-05-19T07:35:35.688Z,100001.13
2023-05-19T07:38:04.214Z,99988.38
2023-05-19T07:40:31.110Z,99994.81
2023-05-19T07:42:57.936Z,99996.50
2023-05-19T07:45:24.555Z,99988.41
2023-05-19T07:47:51.177Z,99997.22
2023-05-19T07:50:18.165Z,99984.72
2023-05-19T07:52:44.760Z,99982.59
2023-05-19T07:55:11.976Z,99983.91
2023-05-19T07:57:38.393Z,99988.44
2023-05-19T08:00:09.899Z,99988.41
2023-05-19T08:02:36.430Z,99991.25
2023-05-19T08:05:03.269Z,99982.28
2023-05-19T08:07:30.106Z,99986.75
2023-05-19T08:09:56.510Z,99980.31
2023-05-19T08:12:23.346Z,99986.25
2023-05-19T08:14:49.924Z,99984.88
2023-05-19T08:17:16.432Z,99977.81
2023-05-19T08:19:43.292Z,99985.88
2023-05-19T08:22:10.253Z,99977.97
2023-05-19T08:24:36.925Z,99975.00
2023-05-19T08:27:05.117Z,99973.88
2023-05-19T08:29:31.896Z,99974.25
2023-05-19T08:32:00.284Z,99965.84
2023-05-19T08:34:26.763Z,99965.13
2023-05-19T08:36:53.489Z,99965.22
2023-05-19T08:39:24.552Z,99967.28
2023-05-19T08:41:51.017Z,99951.31
2023-05-19T08:44:19.038Z,99942.72
2023-05-19T08:46:47.767Z,99939.38
2023-05-19T08:49:16.928Z,99934.31
2023-05-19T08:52:12.281Z,99940.22
2023-05-19T08:54:48.262Z,99945.16
2023-05-19T08:57:15.001Z,99937.34
2023-05-19T08:59:43.959Z,99937.34
2023-05-19T09:02:12.973Z,99938.19
2023-05-19T09:04:41.463Z,99929.91
2023-05-19T09:07:09.409Z,99932.22
2023-05-19T09:09:35.966Z,99933.94
2023-05-19T09:12:02.971Z,99931.09
2023-05-19T09:14:29.557Z,99930.56
2023-05-19T09:16:56.908Z,99932.44
2023-05-19T09:19:28.401Z,99928.38
2023-05-19T09:22:03.843Z,99925.84
2023-05-19T09:24:31.743Z,99922.25
2023-05-19T09:27:00.047Z,99926.84
2023-05-19T09:29:26.967Z,99921.75
2023-05-19T09:31:56.059Z,99921.09
2023-05-19T09:34:25.270Z,99910.75
2023-05-19T09:36:53.175Z,99913.66
2023-05-19T09:39:21.857Z,99910.25
2023-05-19T09:41:53.771Z,99901.22
2023-05-19T09:44:20.158Z,99900.47
2023-05-19T09:46:51.136Z,99902.50
2023-05-19T09:49:22.059Z,99905.19
2023-05-19T09:51:56.606Z,99897.75
2023-05-19T09:54:24.827Z,99897.56
2023-05-19T09:56:56.459Z,99900.84
2023-05-19T09:59:25.515Z,99893.72
2023-05-19T10:01:59.353Z,99897.63
2023-05-19T10:04:28.000Z,99897.31
2023-05-19T10:06:56.060Z,99900.19
2023-05-19T10:09:27.806Z,99886.38
2023-05-19T10:11:56.161Z,99891.88
2023-05-19T10:14:28.143Z,99893.84
2023-05-19T10:16:57.283Z,99894.06
2023-05-19T10:19:26.816Z,99890.31
2023-05-19T10:21:54.011Z,99874.72
2023-05-19T10:24:21.373Z,99879.19
2023-05-19T10:26:55.351Z,99877.00
2023-05-19T10:29:27.361Z,99873.25
2023-05-19T10:31:57.021Z,99874.94
2023-05-19T10:34:57.757Z,99876.63
2023-05-19T10:37:48.760Z,99873.50
2023-05-19T10:40:26.708Z,99866.13
2023-05-19T10:43:09.117Z,99880.53
2023-05-19T10:45:52.330Z,99873.88
2023-05-19T10:48:22.959Z,99865.66
2023-05-19T10:50:54.019Z,99868.25
2023-05-19T10:53:23.268Z,99867.69
2023-05-19T10:55:59.459Z,99867.38
2023-05-19T10:58:39.511Z,99858.56
2023-05-19T11:01:17.540Z,99861.47
2023-05-19T11:03:48.144Z,99847.06
2023-05-19T11:06:29.057Z,99846.78
2023-05-19T11:09:01.042Z,99843.81
2023-05-19T11:11:52.524Z,99835.44
2023-05-19T11:14:23.286Z,99835.44
2023-05-19T11:16:52.012Z,99835.06
2023-05-19T11:19:32.297Z,99837.38
2023-05-19T11:22:10.236Z,99832.22
2023-05-19T11:24:37.522Z,99833.19
2023-05-19T11:27:26.279Z,99827.69
2023-05-19T11:29:55.161Z,99815.56
2023-05-19T11:32:25.713Z,99808.91
2023-05-19T11:34:53.415Z,99821.94
2023-05-19T11:37:19.827Z,99822.81
2023-05-19T11:39:47.386Z,99809.00
2023-05-19T11:42:14.327Z,99820.06
2023-05-19T11:44:41.750Z,99823.84
2023-05-19T11:47:08.595Z,99825.81
2023-05-19T11:49:35.781Z,99818.25
2023-05-19T11:52:03.279Z,99815.63
2023-05-19T11:54:32.412Z,99806.97
2023-05-19T11:57:03.836Z,99797.47
2023-05-19T11:59:36.192Z,99804.38
2023-05-19T12:02:26.127Z,99800.41
2023-05-19T12:04:53.963Z,99802.59
2023-05-19T12:07:23.348Z,99789.75
2023-05-19T12:09:51.628Z,99797.16
2023-05-19T12:12:19.544Z,99788.78
2023-05-19T12:14:47.032Z,99792.22
2023-05-19T12:17:14.979Z,99790.00
2023-05-19T12:19:44.832Z,99785.56
2023-05-19T12:22:12.434Z,99782.28
2023-05-19T12:24:40.529Z,99781.00
2023-05-19T12:27:13.627Z,99793.28
2023-05-19T12:29:41.397Z,99778.19
2023-05-19T12:32:09.367Z,99775.94
2023-05-19T12:34:37.510Z,99779.00
2023-05-19T12:37:04.998Z,99773.63
2023-05-19T12:39:32.431Z,99774.19
2023-05-19T12:42:09.628Z,99766.78
2023-05-19T12:44:43.717Z,99766.78
2023-05-19T12:47:10.235Z,99764.72
2023-05-19T12:49:36.791Z,99756.84
2023-05-19T12:52:07.157Z,99747.53
2023-05-19T12:54:37.604Z,99752.28
2023-05-19T12:57:06.123Z,99746.75
2023-05-19T12:59:38.901Z,99738.97
2023-05-19T13:02:06.554Z,99748.13
2023-05-19T13:04:33.198Z,99753.31
2023-05-19T13:06:59.745Z,99739.59
2023-05-19T13:09:28.012Z,99748.59
2023-05-19T13:11:54.856Z,99744.19
2023-05-19T13:14:21.805Z,99747.78
2023-05-19T13:16:48.254Z,99739.28
2023-05-19T13:19:25.471Z,99747.16
2023-05-19T13:21:52.581Z,99736.75
2023-05-19T13:24:19.451Z,99736.72
2023-05-19T13:26:46.046Z,99733.56
2023-05-19T13:29:12.595Z,99741.78
2023-05-19T13:31:39.417Z,99731.38
2023-05-19T13:34:05.864Z,99737.47
2023-05-19T13:36:33.497Z,99726.13
2023-05-19T13:39:00.794Z,99724.41
2023-05-19T13:41:29.218Z,99722.38
2023-05-19T13:43:59.802Z,99708.88
2023-05-19T13:46:36.358Z,99717.72
2023-05-19T13:49:10.753Z,99722.88
2023-05-19T13:51:37.578Z,99716.75
2023-05-19T13:54:05.299Z,99719.28
2023-05-19T13:56:31.820Z,99707.34
2023-05-19T13:58:58.541Z,99713.50
2023-05-19T14:01:25.060Z,99718.03
2023-05-19T14:03:52.375Z,99711.66
2023-05-19T14:06:19.012Z,99707.09
2023-05-19T14:08:45.875Z,99705.22
2023-05-19T14:11:19.871Z,99714.22
2023-05-19T14:13:51.745Z,99699.66
2023-05-19T14:16:20.363Z,99707.50
2023-05-19T14:18:46.878Z,99702.34
2023-05-19T14:21:13.799Z,99705.00
2023-05-19T14:23:40.316Z,99701.78
2023-05-19T14:26:07.239Z,99689.28
2023-05-19T14:28:33.879Z,99681.44
2023-05-19T14:31:00.377Z,99686.47
2023-05-19T14:33:26.952Z,99687.69
2023-05-19T14:35:53.557Z,99683.94
2023-05-19T14:38:20.585Z,99688.13
2023-05-19T14:40:48.422Z,99688.44
2023-05-19T14:43:15.302Z,99684.78
2023-05-19T14:45:42.051Z,99686.44
2023-05-19T14:48:10.664Z,99688.16
2023-05-19T14:50:37.887Z,99684.44
2023-05-19T14:53:04.540Z,99677.50
2023-05-19T14:55:31.460Z,99674.91
2023-05-19T14:57:57.903Z,99682.59
2023-05-19T15:00:27.900Z,99675.00
2023-05-19T15:02:54.726Z,99680.06
2023-05-19T15:05:22.838Z,99676.41
2023-05-19T15:07:49.672Z,99679.84
2023-05-19T15:10:17.464Z,99668.53
2023-05-19T15:12:43.887Z,99667.38
2023-05-19T15:15:11.323Z,99663.09
2023-05-19T15:17:37.981Z,99670.69
2023-05-19T15:20:04.851Z,99665.88
2023-05-19T15:22:31.289Z,99661.00
2023-05-19T15:24:57.754Z,99660.13
2023-05-19T15:27:24.306Z,99658.06
2023-05-19T15:29:50.823Z,99668.53
2023-05-19T15:32:17.327Z,99676.69
2023-05-19T15:34:44.309Z,99678.47
2023-05-19T15:37:10.754Z,99668.25
2023-05-19T15:39:37.189Z,99666.34
2023-05-19T15:42:04.220Z,99668.91
2023-05-19T15:44:30.788Z,99665.94
2023-05-19T15:46:57.611Z,99668.03
2023-05-19T15:49:25.116Z,99666.72
2023-05-19T15:51:51.878Z,99659.75
2023-05-19T15:54:18.595Z,99658.97
2023-05-19T15:56:45.386Z,99663.97
2023-05-19T15:59:12.182Z,99655.66
2023-05-19T16:01:38.723Z,99655.59
2023-05-19T16:04:06.585Z,99650.59
2023-05-19T16:06:33.146Z,99652.56
2023-05-19T16:08:59.843Z,99643.75
2023-05-19T16:11:27.070Z,99649.09
2023-05-19T16:13:53.665Z,99640.88
2023-05-19T16:16:20.883Z,99639.81
2023-05-19T16:18:47.383Z,99632.84
2023-05-19T16:21:14.169Z,99624.38
2023-05-19T16:23:40.655Z,99633.94
2023-05-19T16:26:07.444Z,99627.28
2023-05-19T16:28:34.160Z,99635.59
2023-05-19T16:31:00.716Z,99642.34
2023-05-19T16:33:27.934Z,99644.88
2023-05-19T16:35:54.580Z,99646.88
2023-05-19T16:38:21.435Z,99640.00
2023-05-19T16:40:47.905Z,99640.78
2023-05-19T16:43:14.640Z,99640.84
2023-05-19T16:45:41.306Z,99636.00
2023-05-19T16:48:08.294Z,99641.28
2023-05-19T16:50:35.238Z,99649.66
2023-05-19T16:53:02.225Z,99640.19
2023-05-19T16:55:28.685Z,99651.38
2023-05-19T16:57:55.523Z,99644.91
2023-05-19T17:00:22.303Z,99646.88
2023-05-19T17:02:49.186Z,99644.38
2023-05-19T17:05:15.868Z,99639.88
2023-05-19T17:07:42.968Z,99644.19
2023-05-19T17:10:09.922Z,99633.78
2023-05-19T17:12:36.860Z,99639.22
2023-05-19T17:15:03.623Z,99639.31
2023-05-19T17:17:30.082Z,99641.44
2023-05-19T17:19:56.717Z,99633.00
2023-05-19T17:22:23.208Z,99640.63
2023-05-19T17:24:50.165Z,99643.66
2023-05-19T17:27:16.617Z,99640.94
2023-05-19T17:29:43.682Z,99632.31
2023-05-19T17:32:10.354Z,99638.16
2023-05-19T17:34:37.046Z,99632.63
2023-05-19T17:37:03.587Z,99646.22
2023-05-19T17:39:30.080Z,99641.81
2023-05-19T17:41:56.613Z,99643.13
2023-05-19T17:44:23.441Z,99647.53
2023-05-19T17:46:50.195Z,99659.66
2023-05-19T17:49:16.705Z,99653.44
2023-05-19T17:51:44.948Z,99657.28
2023-05-19T17:54:11.661Z,99668.06
2023-05-19T17:56:42.874Z,99670.75
2023-05-19T17:59:09.724Z,99658.03
2023-05-19T18:01:36.494Z,99660.13
2023-05-19T18:04:04.078Z,99659.25
2023-05-19T18:06:31.826Z,99671.06
2023-05-19T18:09:01.094Z,99673.19
2023-05-19T18:11:27.820Z,99676.66
2023-05-19T18:13:54.362Z,99677.41
2023-05-19T18:16:20.870Z,99679.94
2023-05-19T18:18:50.267Z,99676.81
2023-05-19T18:21:17.932Z,99670.78
2023-05-19T18:23:45.380Z,99680.53
2023-05-19T18:26:15.857Z,99678.28
2023-05-19T18:28:43.321Z,99681.50
2023-05-19T18:31:15.512Z,99681.53
2023-05-19T18:33:42.076Z,99682.78
2023-05-19T18:36:09.183Z,99689.91
2023-05-19T18:38:35.720Z,99689.28
2023-05-19T18:41:02.594Z,99686.09
2023-05-19T18:43:30.128Z,99689.31
2023-05-19T18:45:57.070Z,99699.53
2023-05-19T18:48:25.469Z,99700.22
2023-05-19T18:50:51.955Z,99699.94
2023-05-19T18:53:18.821Z,99706.38
2023-05-19T18:55:45.695Z,99710.13
2023-05-19T18:58:12.162Z,99706.44
2023-05-19T19:00:39.051Z,99711.53
2023-05-19T19:03:05.675Z,99714.56
2023-05-19T19:05:32.383Z,99709.47
2023-05-19T19:07:58.822Z,99710.84
2023-05-19T19:10:25.981Z,99719.66
2023-05-19T19:12:52.671Z,99716.81
2023-05-19T19:15:19.119Z,99716.94
2023-05-19T19:17:46.612Z,99717.81
2023-05-19T19:20:13.395Z,99716.94
2023-05-19T19:22:40.290Z,99723.88
2023-05-19T19:25:07.038Z,99735.69
2023-05-19T19:27:35.799Z,99729.06
2023-05-19T19:30:02.509Z,99727.25
2023-05-19T19:32:31.292Z,99734.66
2023-05-19T19:34:58.368Z,99732.25
2023-05-19T19:37:25.073Z,99741.88
2023-05-19T19:39:51.757Z,99741.50
2023-05-19T19:42:18.811Z,99742.44
2023-05-19T19:44:45.941Z,99747.13
2023-05-19T19:47:12.475Z,99750.25
2023-05-19T19:49:39.348Z,99751.66
2023-05-19T19:52:05.995Z,99753.78
2023-05-19T19:54:32.692Z,99755.66
2023-05-19T19:56:59.617Z,99755.56
2023-05-19T19:59:26.959Z,99755.25
2023-05-19T20:01:55.096Z,99755.81
2023-05-19T20:04:21.701Z,99764.13
2023-05-19T20:06:49.999Z,99763.50
2023-05-19T20:09:17.053Z,99769.44
2023-05-19T20:11:43.933Z,99770.19
2023-05-19T20:14:10.708Z,99778.16
2023-05-19T20:16:37.424Z,99779.44
2023-05-19T20:19:04.981Z,99783.19
2023-05-19T20:21:32.405Z,99778.66
2023-05-19T20:23:59.385Z,99777.56
2023-05-19T20:26:25.949Z,99784.28
2023-05-19T20:28:52.438Z,99780.22
2023-05-19T20:31:19.132Z,99781.94
2023-05-19T20:33:45.961Z,99795.28
2023-05-19T20:36:12.557Z,99792.47
2023-05-19T20:38:39.047Z,99796.47
2023-05-19T20:41:05.539Z,99802.56
2023-05-19T20:43:33.288Z,99806.97
2023-05-19T20:46:01.361Z,99802.06
2023-05-19T20:48:28.330Z,99808.72
2023-05-19T20:50:54.863Z,99803.34
2023-05-19T20:53:21.853Z,99807.56
2023-05-19T20:55:48.642Z,99815.91
2023-05-19T20:58:15.418Z,99819.88
2023-05-19T21:00:41.888Z,99822.16
2023-05-19T21:03:08.744Z,99827.94
2023-05-19T21:05:36.573Z,99820.28
2023-05-19T21:08:03.242Z,99829.91
2023-05-19T21:10:30.074Z,99830.47
2023-05-19T21:12:58.692Z,99821.13
2023-05-19T21:15:25.484Z,99823.38
2023-05-19T21:17:51.909Z,99819.28
2023-05-19T21:20:18.445Z,99820.53
2023-05-19T21:22:44.847Z,99822.78
2023-05-19T21:25:11.569Z,99825.03
2023-05-19T21:27:39.426Z,99819.34
2023-05-19T21:30:06.833Z,99816.38
2023-05-19T21:32:33.353Z,99816.78
2023-05-19T21:35:00.168Z,99820.31
2023-05-19T21:37:26.919Z,99826.97
2023-05-19T21:39:53.540Z,99821.16
2023-05-19T21:42:20.000Z,99823.09
2023-05-19T21:44:46.872Z,99824.38
2023-05-19T21:47:13.336Z,99838.50
2023-05-19T21:49:40.837Z,99834.16
2023-05-19T21:52:07.998Z,99830.31
2023-05-19T21:54:34.804Z,99837.81
2023-05-19T21:57:02.509Z,99827.63
2023-05-19T21:59:28.946Z,99828.72
2023-05-19T22:01:55.693Z,99831.78
2023-05-19T22:04:22.543Z,99833.31
2023-05-19T22:06:49.333Z,99832.00
2023-05-19T22:09:15.857Z,99830.28
2023-05-19T22:11:42.314Z,99827.91
2023-05-19T22:14:09.358Z,99829.22
2023-05-19T22:16:35.865Z,99826.19
2023-05-19T22:19:02.379Z,99831.44
2023-05-19T22:21:29.553Z,99832.84
2023-05-19T22:23:56.106Z,99830.69
2023-05-19T22:26:22.770Z,99827.09
2023-05-19T22:28:49.881Z,99820.97
2023-05-19T22:31:17.087Z,99824.66
2023-05-19T22:33:43.552Z,99838.78
2023-05-19T22:36:11.211Z,99820.56
2023-05-19T22:38:37.793Z,99823.00
2023-05-19T22:41:04.317Z,99822.75
2023-05-19T22:43:31.084Z,99819.25
2023-05-19T22:45:57.618Z,99817.81
2023-05-19T22:48:24.263Z,99817.19
2023-05-19T22:50:50.901Z,99813.59
2023-05-19T22:53:17.730Z,99815.16
2023-05-19T22:55:44.196Z,99819.78
2023-05-19T22:58:10.706Z,99818.94
2023-05-19T23:00:37.132Z,99821.38
2023-05-19T23:03:03.796Z,99813.81
2023-05-19T23:05:30.463Z,99815.78
2023-05-19T23:07:58.412Z,99812.50
2023-05-19T23:10:25.250Z,99819.56
2023-05-19T23:12:52.275Z,99813.38
2023-05-19T23:15:19.269Z,99818.44
2023-05-19T23:17:45.703Z,99802.25
2023-05-19T23:20:13.000Z,99817.38
2023-05-19T23:22:39.506Z,99808.63
2023-05-19T23:25:07.761Z,99800.47
2023-05-19T23:27:35.940Z,99809.94
2023-05-19T23:30:03.406Z,99808.72
2023-05-19T23:32:30.006Z,99811.03
2023-05-19T23:34:56.542Z,99813.59
2023-05-19T23:37:23.383Z,99815.78
2023-05-19T23:39:49.854Z,99812.63
2023-05-19T23:42:16.282Z,99813.84
2023-05-19T23:44:43.041Z,99814.81
2023-05-19T23:47:09.717Z,99812.00
2023-05-19T23:49:36.714Z,99810.19
2023-05-19T23:52:03.333Z,99815.41
2023-05-19T23:54:30.808Z,99812.13
2023-05-19T23:56:58.284Z,99815.06
2023-05-19T23:59:25.149Z,99811.66
